createdAt,value
2018-12-04T00:00:42.738Z,99377.19
2018-12-04T00:05:38.746Z,99392.85
2018-12-04T00:10:34.741Z,99414.06
2018-12-04T00:15:30.965Z,99429.42
2018-12-04T00:20:26.949Z,99447.09
2018-12-04T00:25:22.961Z,99462.17
2018-12-04T00:30:19.820Z,99480.22
2018-12-04T00:35:15.874Z,99501.91
2018-12-04T00:40:11.877Z,99516.42
2018-12-04T00:45:08.017Z,99525.19
2018-12-04T00:50:04.234Z,99536.64
2018-12-04T00:55:00.273Z,99558.47
2018-12-04T00:59:59.867Z,99578.53
2018-12-04T01:04:55.863Z,99596.98
2018-12-04T01:09:52.059Z,99608.16
2018-12-04T01:14:48.065Z,99617.05
2018-12-04T01:19:44.093Z,99629.83
2018-12-04T01:24:40.052Z,99646.86
2018-12-04T01:29:37.396Z,99659.44
2018-12-04T01:34:33.450Z,99671.50
2018-12-04T01:39:29.442Z,99695.80
2018-12-04T01:44:25.437Z,99711.52
2018-12-04T01:49:21.414Z,99725.61
2018-12-04T01:54:17.523Z,99740.02
2018-12-04T01:59:15.329Z,99755.73
2018-12-04T02:04:11.625Z,99769.92
2018-12-04T02:09:07.622Z,99783.22
2018-12-04T02:14:03.597Z,99793.18
2018-12-04T02:18:59.601Z,99811.31
2018-12-04T02:23:55.628Z,99818.58
2018-12-04T02:28:51.627Z,99821.20
2018-12-04T02:33:47.614Z,99847.98
2018-12-04T02:38:43.684Z,99850.20
2018-12-04T02:43:39.676Z,99861.77
2018-12-04T02:48:35.697Z,99875.17
2018-12-04T02:53:31.796Z,99892.05
2018-12-04T02:58:27.813Z,99896.45
2018-12-04T03:03:23.897Z,99908.47
2018-12-04T03:08:19.897Z,99924.63
2018-12-04T03:13:15.897Z,99937.83
2018-12-04T03:18:11.923Z,99949.49
2018-12-04T03:23:07.922Z,99966.91
2018-12-04T03:28:04.048Z,99979.39
2018-12-04T03:33:00.042Z,99978.95
2018-12-04T03:37:56.029Z,99987.99
2018-12-04T03:42:52.037Z,100002.77
2018-12-04T03:47:48.049Z,100002.13
2018-12-04T03:52:44.056Z,100012.72
2018-12-04T03:57:40.101Z,100028.25
2018-12-04T04:02:36.124Z,100028.19
2018-12-04T04:07:32.126Z,100033.67
2018-12-04T04:12:28.122Z,100045.97
2018-12-04T04:17:24.133Z,100050.77
2018-12-04T04:22:20.201Z,100066.44
2018-12-04T04:27:16.198Z,100063.63
2018-12-04T04:32:12.213Z,100077.77
2018-12-04T04:37:08.209Z,100082.49
2018-12-04T04:42:04.194Z,100099.69
2018-12-04T04:47:00.173Z,100111.92
2018-12-04T04:51:56.167Z,100119.00
2018-12-04T04:56:52.229Z,100127.34
2018-12-04T05:01:48.440Z,100140.00
2018-12-04T05:06:44.461Z,100158.17
2018-12-04T05:11:40.449Z,100170.94
2018-12-04T05:16:36.497Z,100179.16
2018-12-04T05:21:32.489Z,100191.59
2018-12-04T05:26:28.490Z,100195.34
2018-12-04T05:31:24.512Z,100198.28
2018-12-04T05:36:20.514Z,100204.87
2018-12-04T05:41:16.508Z,100216.73
2018-12-04T05:46:12.501Z,100230.21
2018-12-04T05:51:08.500Z,100236.42
2018-12-04T05:56:04.602Z,100250.80
2018-12-04T06:01:00.663Z,100262.39
2018-12-04T06:05:56.765Z,100269.73
2018-12-04T06:10:52.785Z,100291.36
2018-12-04T06:15:48.806Z,100299.70
2018-12-04T06:20:44.833Z,100309.41
2018-12-04T06:25:40.931Z,100316.73
2018-12-04T06:30:36.945Z,100335.52
2018-12-04T06:35:33.025Z,100358.54
2018-12-04T06:40:29.085Z,100372.49
2018-12-04T06:45:25.106Z,100392.53
2018-12-04T06:50:21.175Z,100405.12
2018-12-04T06:55:17.217Z,100419.66
2018-12-04T07:00:14.006Z,100429.73
2018-12-04T07:05:10.085Z,100445.11
2018-12-04T07:10:06.269Z,100457.84
2018-12-04T07:15:02.304Z,100458.38
2018-12-04T07:19:58.317Z,100471.75
2018-12-04T07:24:54.341Z,100485.30
2018-12-04T07:29:51.273Z,100502.58
2018-12-04T07:34:47.447Z,100511.09
2018-12-04T07:39:43.690Z,100521.52
2018-12-04T07:44:39.769Z,100537.81
2018-12-04T07:49:35.805Z,100535.86
2018-12-04T07:54:32.556Z,100550.84
2018-12-04T07:59:30.139Z,100565.53
2018-12-04T08:04:26.321Z,100581.69
2018-12-04T08:09:22.353Z,100585.44
2018-12-04T08:14:18.375Z,100598.31
2018-12-04T08:19:14.418Z,100606.14
2018-12-04T08:24:10.435Z,100627.34
2018-12-04T08:29:06.472Z,100625.88
2018-12-04T08:34:02.665Z,100638.59
2018-12-04T08:38:58.684Z,100658.84
2018-12-04T08:43:54.722Z,100663.77
2018-12-04T08:48:50.753Z,100674.21
2018-12-04T08:53:46.774Z,100679.09
2018-12-04T08:58:42.805Z,100697.71
2018-12-04T09:03:38.931Z,100698.17
2018-12-04T09:08:35.081Z,100714.69
2018-12-04T09:18:32.793Z,100735.24
2018-12-04T09:23:28.849Z,100746.19
2018-12-04T09:28:24.994Z,100759.39
2018-12-04T09:33:21.016Z,100777.67
2018-12-04T09:38:17.090Z,100784.20
2018-12-04T09:43:13.111Z,100799.89
2018-12-04T09:48:09.231Z,100810.03
2018-12-04T09:53:05.386Z,100814.92
2018-12-04T09:58:01.375Z,100820.80
2018-12-04T10:02:57.385Z,100829.64
2018-12-04T10:07:53.403Z,100841.06
2018-12-04T10:12:49.510Z,100844.02
2018-12-04T10:17:45.802Z,100855.91
2018-12-04T10:22:41.853Z,100860.66
2018-12-04T10:27:37.882Z,100858.65
2018-12-04T10:32:33.916Z,100871.10
2018-12-04T10:37:29.966Z,100872.70
2018-12-04T10:42:26.022Z,100875.96
2018-12-04T10:47:22.053Z,100879.88
2018-12-04T10:52:18.104Z,100877.91
2018-12-04T10:57:14.128Z,100892.96
2018-12-04T11:02:16.377Z,100901.93
2018-12-04T11:07:12.413Z,100909.63
2018-12-04T11:12:12.264Z,100907.67
2018-12-04T11:17:06.648Z,100916.48
2018-12-04T11:22:02.784Z,100928.09
2018-12-04T11:26:58.805Z,100925.13
2018-12-04T11:31:54.861Z,100925.61
2018-12-04T11:36:51.068Z,100923.41
2018-12-04T11:41:47.209Z,100942.60
2018-12-04T11:46:43.243Z,100949.44
2018-12-04T11:51:39.263Z,100960.16
2018-12-04T11:56:35.424Z,100966.59
2018-12-04T12:01:31.578Z,100973.00
2018-12-04T12:06:27.618Z,100976.60
2018-12-04T12:11:23.652Z,100972.44
2018-12-04T12:16:20.348Z,100970.83
2018-12-04T12:21:16.377Z,100982.44
2018-12-04T12:26:12.545Z,100982.46
2018-12-04T12:31:08.581Z,100992.38
2018-12-04T12:36:04.728Z,101001.36
2018-12-04T12:41:00.763Z,101019.79
2018-12-04T12:45:56.778Z,101021.09
2018-12-04T12:50:52.795Z,101028.94
2018-12-04T12:55:48.824Z,101025.99
2018-12-04T13:00:44.880Z,101036.64
2018-12-04T13:05:40.909Z,101059.05
2018-12-04T13:10:36.984Z,101063.34
2018-12-04T13:15:33.054Z,101062.29
2018-12-04T13:20:29.185Z,101061.97
2018-12-04T13:25:25.313Z,101076.11
2018-12-04T13:30:21.464Z,101076.26
2018-12-04T13:35:17.521Z,101082.27
2018-12-04T13:40:13.579Z,101077.70
2018-12-04T13:45:09.665Z,101081.96
2018-12-04T13:50:05.821Z,101084.95
2018-12-04T13:55:01.897Z,101096.10
2018-12-04T13:59:58.814Z,101099.02
2018-12-04T14:04:55.008Z,101096.10
2018-12-04T14:09:51.056Z,101112.47
2018-12-04T14:14:47.199Z,101122.14
2018-12-04T14:19:43.239Z,101133.77
2018-12-04T14:24:40.345Z,101153.25
2018-12-04T14:29:36.976Z,101155.06
2018-12-04T14:34:33.191Z,101166.52
2018-12-04T14:39:29.564Z,101174.55
2018-12-04T14:44:25.849Z,101195.96
2018-12-04T14:49:23.794Z,101206.77
2018-12-04T14:54:22.543Z,101209.53
2018-12-04T14:59:20.842Z,101218.82
2018-12-04T15:04:17.761Z,101227.60
2018-12-04T15:09:14.920Z,101241.36
2018-12-04T15:14:11.070Z,101253.72
2018-12-04T15:19:07.244Z,101259.42
2018-12-04T15:24:05.114Z,101270.31
2018-12-04T15:29:01.428Z,101278.48
2018-12-04T15:33:57.607Z,101285.63
2018-12-04T15:38:53.899Z,101300.91
2018-12-04T15:43:51.674Z,101298.01
2018-12-04T15:48:53.069Z,101299.47
2018-12-04T15:53:52.261Z,101319.19
2018-12-04T15:58:52.332Z,101329.75
2018-12-04T16:03:51.428Z,101328.23
2018-12-04T16:08:48.934Z,101326.59
2018-12-04T16:13:47.982Z,101327.45
2018-12-04T16:18:44.903Z,101336.89
2018-12-04T16:23:41.818Z,101336.66
2018-12-04T16:28:41.519Z,101345.10
2018-12-04T16:33:39.586Z,101346.80
2018-12-04T16:38:36.607Z,101359.05
2018-12-04T16:43:33.132Z,101369.43
2018-12-04T16:48:29.352Z,101372.14
2018-12-04T16:53:25.492Z,101380.44
2018-12-04T16:58:21.921Z,101382.47
2018-12-04T17:03:17.977Z,101386.64
2018-12-04T17:08:18.950Z,101391.81
2018-12-04T17:13:15.017Z,101388.30
2018-12-04T17:18:11.338Z,101401.61
2018-12-04T17:23:07.373Z,101401.70
2018-12-04T17:28:03.473Z,101406.39
2018-12-04T17:32:59.819Z,101408.71
2018-12-04T17:37:55.862Z,101422.05
2018-12-04T17:42:52.009Z,101444.03
2018-12-04T17:47:49.709Z,101434.02
2018-12-04T17:52:47.059Z,101439.00
2018-12-04T17:57:43.096Z,101445.53
2018-12-04T18:02:39.139Z,101446.87
2018-12-04T18:07:35.261Z,101455.62
2018-12-04T18:12:31.270Z,101461.98
2018-12-04T18:17:27.353Z,101457.89
2018-12-04T18:22:23.865Z,101449.89
2018-12-04T18:27:21.072Z,101461.68
2018-12-04T18:32:17.095Z,101460.84
2018-12-04T18:37:13.103Z,101461.33
2018-12-04T18:42:09.237Z,101460.27
2018-12-04T18:47:05.260Z,101469.44
2018-12-04T18:52:01.280Z,101476.64
2018-12-04T18:56:57.357Z,101471.91
2018-12-04T19:01:53.383Z,101479.67
2018-12-04T19:06:49.442Z,101492.70
2018-12-04T19:11:45.469Z,101505.90
2018-12-04T19:16:41.516Z,101509.86
2018-12-04T19:21:37.577Z,101516.78
2018-12-04T19:26:33.798Z,101522.39
2018-12-04T19:31:29.825Z,101528.50
2018-12-04T19:36:27.007Z,101550.93
2018-12-04T19:41:23.665Z,101547.21
2018-12-04T19:46:19.715Z,101548.61
2018-12-04T19:51:15.742Z,101555.30
2018-12-04T19:56:11.885Z,101567.77
2018-12-04T20:01:09.523Z,101568.92
2018-12-04T20:06:06.464Z,101569.02
2018-12-04T20:11:04.243Z,101573.83
2018-12-04T20:16:03.845Z,101572.76
2018-12-04T20:21:01.068Z,101578.27
2018-12-04T20:25:59.773Z,101585.90
2018-12-04T20:30:57.501Z,101586.96
2018-12-04T20:35:54.471Z,101592.59
2018-12-04T20:40:51.313Z,101597.02
2018-12-04T20:45:47.362Z,101598.66
2018-12-04T20:50:43.377Z,101600.20
2018-12-04T20:55:42.514Z,101601.91
2018-12-04T21:00:42.771Z,101598.84
2018-12-04T21:05:39.268Z,101602.13
2018-12-04T21:10:36.222Z,101592.94
2018-12-04T21:15:33.312Z,101598.86
2018-12-04T21:20:29.486Z,101600.07
2018-12-04T21:25:25.497Z,101598.64
2018-12-04T21:30:27.661Z,101613.42
2018-12-04T21:35:29.859Z,101612.89
2018-12-04T21:40:31.833Z,101617.15
2018-12-04T21:45:34.045Z,101623.53
2018-12-04T21:50:30.085Z,101633.16
2018-12-04T21:55:26.134Z,101628.27
2018-12-04T22:00:22.146Z,101625.22
2018-12-04T22:05:18.959Z,101626.97
2018-12-04T22:10:15.044Z,101632.02
2018-12-04T22:15:11.068Z,101626.09
2018-12-04T22:20:07.082Z,101636.55
2018-12-04T22:25:06.552Z,101627.73
2018-12-04T22:30:04.731Z,101644.23
2018-12-04T22:35:01.175Z,101643.36
2018-12-04T22:39:57.212Z,101651.52
2018-12-04T22:44:55.261Z,101654.23
2018-12-04T22:49:51.245Z,101662.14
2018-12-04T22:54:48.579Z,101661.27
2018-12-04T22:59:44.584Z,101651.91
2018-12-04T23:04:40.823Z,101642.45
2018-12-04T23:09:36.820Z,101640.27
2018-12-04T23:14:32.860Z,101641.55
2018-12-04T23:19:28.881Z,101645.91
2018-12-04T23:24:26.674Z,101643.56
2018-12-04T23:29:22.808Z,101641.13
2018-12-04T23:34:18.822Z,101636.06
2018-12-04T23:39:14.825Z,101645.39
2018-12-04T23:44:10.914Z,101641.85
2018-12-04T23:49:06.931Z,101642.66
2018-12-04T23:54:04.575Z,101643.89
2018-12-04T23:59:00.678Z,101641.05
